sensor_id;sensor_type;location;lat;lon;timestamp;pressure;altitude;pressure_sealevel;temperature;humidity
8253;BME280;61313;48.396;10.008;2023-03-24T00:01:02;95473.72;;;14.04;55.38
8253;BME280;61313;48.396;10.008;2023-03-24T00:03:29;95463.16;;;14.04;55.22
8253;BME280;61313;48.396;10.008;2023-03-24T00:06:03;95466.81;;;14.14;55.08
8253;BME280;61313;48.396;10.008;2023-03-24T00:08:34;95466.38;;;14.21;54.66
8253;BME280;61313;48.396;10.008;2023-03-24T00:11:02;95475.75;;;14.25;54.50
8253;BME280;61313;48.396;10.008;2023-03-24T00:13:29;95474.44;;;14.06;55.38
8253;BME280;61313;48.396;10.008;2023-03-24T00:15:57;95478.09;;;14.16;54.80
8253;BME280;61313;48.396;10.008;2023-03-24T00:18:22;95467.09;;;14.23;54.74
8253;BME280;61313;48.396;10.008;2023-03-24T00:20:51;95472.38;;;14.23;54.93
8253;BME280;61313;48.396;10.008;2023-03-24T00:23:26;95473.78;;;14.15;55.54
8253;BME280;61313;48.396;10.008;2023-03-24T00:26:06;95486.50;;;14.22;54.80
8253;BME280;61313;48.396;10.008;2023-03-24T00:28:34;95501.41;;;14.23;54.59
8253;BME280;61313;48.396;10.008;2023-03-24T00:31:02;95482.34;;;14.06;56.02
8253;BME280;61313;48.396;10.008;2023-03-24T00:33:29;95477.97;;;13.94;56.25
8253;BME280;61313;48.396;10.008;2023-03-24T00:36:04;95495.31;;;14.09;55.53
8253;BME280;61313;48.396;10.008;2023-03-24T00:38:30;95477.16;;;14.17;55.95
8253;BME280;61313;48.396;10.008;2023-03-24T00:40:56;95470.16;;;14.16;56.07
8253;BME280;61313;48.396;10.008;2023-03-24T00:43:23;95468.44;;;14.04;56.21
8253;BME280;61313;48.396;10.008;2023-03-24T00:45:49;95461.66;;;14.13;55.66
8253;BME280;61313;48.396;10.008;2023-03-24T00:48:17;95459.44;;;14.07;55.75
8253;BME280;61313;48.396;10.008;2023-03-24T00:50:46;95461.03;;;14.09;56.23
8253;BME280;61313;48.396;10.008;2023-03-24T00:53:13;95462.00;;;14.08;55.89
8253;BME280;61313;48.396;10.008;2023-03-24T00:55:45;95465.91;;;14.03;56.16
8253;BME280;61313;48.396;10.008;2023-03-24T00:58:13;95462.41;;;14.02;55.66
8253;BME280;61313;48.396;10.008;2023-03-24T01:00:48;95456.69;;;13.84;57.34
8253;BME280;61313;48.396;10.008;2023-03-24T01:03:14;95452.47;;;13.82;56.39
8253;BME280;61313;48.396;10.008;2023-03-24T01:05:41;95457.94;;;13.91;56.83
8253;BME280;61313;48.396;10.008;2023-03-24T01:08:16;95444.53;;;13.82;57.41
8253;BME280;61313;48.396;10.008;2023-03-24T01:10:46;95446.13;;;13.34;59.15
8253;BME280;61313;48.396;10.008;2023-03-24T01:13:25;95440.72;;;13.62;57.47
8253;BME280;61313;48.396;10.008;2023-03-24T01:15:51;95432.41;;;13.55;57.71
8253;BME280;61313;48.396;10.008;2023-03-24T01:18:17;95433.94;;;13.70;57.04
8253;BME280;61313;48.396;10.008;2023-03-24T01:20:44;95432.44;;;13.79;56.77
8253;BME280;61313;48.396;10.008;2023-03-24T01:23:12;95422.75;;;13.80;57.22
8253;BME280;61313;48.396;10.008;2023-03-24T01:25:39;95420.31;;;13.40;58.05
8253;BME280;61313;48.396;10.008;2023-03-24T01:28:07;95422.19;;;13.50;58.60
8253;BME280;61313;48.396;10.008;2023-03-24T01:30:32;95415.09;;;13.51;58.49
8253;BME280;61313;48.396;10.008;2023-03-24T01:32:58;95408.44;;;13.58;58.24
8253;BME280;61313;48.396;10.008;2023-03-24T01:35:24;95413.28;;;13.64;58.32
8253;BME280;61313;48.396;10.008;2023-03-24T01:37:51;95397.41;;;13.53;58.14
8253;BME280;61313;48.396;10.008;2023-03-24T01:40:21;95397.38;;;13.66;58.07
8253;BME280;61313;48.396;10.008;2023-03-24T01:42:47;95396.81;;;13.73;58.09
8253;BME280;61313;48.396;10.008;2023-03-24T01:45:42;95391.22;;;13.65;58.00
8253;BME280;61313;48.396;10.008;2023-03-24T01:51:15;95377.94;;;13.67;57.43
8253;BME280;61313;48.396;10.008;2023-03-24T01:53:46;95379.31;;;13.72;57.04
8253;BME280;61313;48.396;10.008;2023-03-24T01:56:14;95380.50;;;13.68;57.48
8253;BME280;61313;48.396;10.008;2023-03-24T01:58:44;95375.47;;;13.76;57.53
8253;BME280;61313;48.396;10.008;2023-03-24T02:01:11;95375.72;;;13.73;57.08
8253;BME280;61313;48.396;10.008;2023-03-24T02:03:37;95369.59;;;13.73;57.38
8253;BME280;61313;48.396;10.008;2023-03-24T02:06:05;95369.44;;;13.63;57.28
8253;BME280;61313;48.396;10.008;2023-03-24T02:11:01;95372.22;;;13.49;57.67
8253;BME280;61313;48.396;10.008;2023-03-24T02:13:27;95366.56;;;13.42;57.67
8253;BME280;61313;48.396;10.008;2023-03-24T02:16:30;95356.75;;;13.44;58.14
8253;BME280;61313;48.396;10.008;2023-03-24T02:41:48;95342.22;;;13.63;57.19
8253;BME280;61313;48.396;10.008;2023-03-24T02:46:55;95338.16;;;13.70;56.97
8253;BME280;61313;48.396;10.008;2023-03-24T02:49:36;95339.88;;;13.71;57.15
8253;BME280;61313;48.396;10.008;2023-03-24T02:52:17;95331.91;;;13.60;57.13
8253;BME280;61313;48.396;10.008;2023-03-24T02:55:00;95326.19;;;13.66;57.31
8253;BME280;61313;48.396;10.008;2023-03-24T02:57:35;95330.09;;;13.60;57.03
8253;BME280;61313;48.396;10.008;2023-03-24T03:00:07;95328.47;;;13.46;58.43
8253;BME280;61313;48.396;10.008;2023-03-24T03:02:38;95341.09;;;13.54;58.17
8253;BME280;61313;48.396;10.008;2023-03-24T03:05:13;95337.06;;;13.61;58.02
8253;BME280;61313;48.396;10.008;2023-03-24T03:07:42;95331.34;;;13.67;58.03
8253;BME280;61313;48.396;10.008;2023-03-24T03:10:15;95328.09;;;13.64;57.35
8253;BME280;61313;48.396;10.008;2023-03-24T03:12:44;95322.19;;;13.60;57.93
8253;BME280;61313;48.396;10.008;2023-03-24T03:15:23;95322.66;;;13.54;58.04
8253;BME280;61313;48.396;10.008;2023-03-24T03:17:55;95321.59;;;13.57;57.45
8253;BME280;61313;48.396;10.008;2023-03-24T03:20:23;95323.25;;;13.58;57.91
8253;BME280;61313;48.396;10.008;2023-03-24T03:22:59;95318.63;;;13.61;56.78
8253;BME280;61313;48.396;10.008;2023-03-24T03:25:28;95327.25;;;13.63;57.21
8253;BME280;61313;48.396;10.008;2023-03-24T03:27:58;95321.13;;;13.63;57.32
8253;BME280;61313;48.396;10.008;2023-03-24T03:30:27;95316.19;;;13.58;57.44
8253;BME280;61313;48.396;10.008;2023-03-24T03:33:03;95322.44;;;13.57;56.97
8253;BME280;61313;48.396;10.008;2023-03-24T03:35:45;95322.81;;;13.64;56.63
8253;BME280;61313;48.396;10.008;2023-03-24T03:41:18;95315.25;;;13.59;56.90
8253;BME280;61313;48.396;10.008;2023-03-24T03:43:45;95315.97;;;13.61;56.75
8253;BME280;61313;48.396;10.008;2023-03-24T03:46:12;95314.50;;;13.57;57.13
8253;BME280;61313;48.396;10.008;2023-03-24T03:48:39;95319.16;;;13.53;56.87
8253;BME280;61313;48.396;10.008;2023-03-24T03:51:05;95323.06;;;13.61;57.39
8253;BME280;61313;48.396;10.008;2023-03-24T03:53:39;95321.59;;;13.57;57.53
8253;BME280;61313;48.396;10.008;2023-03-24T03:56:08;95320.03;;;13.54;57.67
8253;BME280;61313;48.396;10.008;2023-03-24T03:58:34;95326.47;;;13.50;57.34
8253;BME280;61313;48.396;10.008;2023-03-24T04:01:01;95324.88;;;13.47;57.81
8253;BME280;61313;48.396;10.008;2023-03-24T04:06:23;95313.78;;;13.31;58.66
8253;BME280;61313;48.396;10.008;2023-03-24T04:09:45;95316.91;;;13.36;58.19
8253;BME280;61313;48.396;10.008;2023-03-24T04:20:08;95316.06;;;13.23;58.66
8253;BME280;61313;48.396;10.008;2023-03-24T04:25:28;95329.38;;;13.21;58.81
8253;BME280;61313;48.396;10.008;2023-03-24T04:28:20;95327.81;;;13.19;58.96
8253;BME280;61313;48.396;10.008;2023-03-24T04:31:02;95327.91;;;13.17;59.66
8253;BME280;61313;48.396;10.008;2023-03-24T04:33:47;95336.31;;;13.22;59.35
8253;BME280;61313;48.396;10.008;2023-03-24T04:38:49;95328.63;;;13.19;60.18
8253;BME280;61313;48.396;10.008;2023-03-24T04:41:20;95319.06;;;13.18;60.70
8253;BME280;61313;48.396;10.008;2023-03-24T04:43:47;95311.88;;;13.20;60.77
8253;BME280;61313;48.396;10.008;2023-03-24T04:46:13;95287.22;;;13.21;60.43
8253;BME280;61313;48.396;10.008;2023-03-24T04:48:45;95261.88;;;13.07;60.91
8253;BME280;61313;48.396;10.008;2023-03-24T04:51:15;95291.72;;;12.95;62.05
8253;BME280;61313;48.396;10.008;2023-03-24T04:53:41;95273.56;;;13.03;61.96
8253;BME280;61313;48.396;10.008;2023-03-24T04:58:42;95282.63;;;13.12;62.07
8253;BME280;61313;48.396;10.008;2023-03-24T05:01:08;95281.28;;;13.06;62.26
8253;BME280;61313;48.396;10.008;2023-03-24T05:03:33;95280.25;;;13.20;62.03
8253;BME280;61313;48.396;10.008;2023-03-24T05:06:02;95283.22;;;13.16;62.23
8253;BME280;61313;48.396;10.008;2023-03-24T05:08:30;95268.47;;;13.13;61.67
8253;BME280;61313;48.396;10.008;2023-03-24T05:10:55;95272.06;;;13.12;62.01
8253;BME280;61313;48.396;10.008;2023-03-24T05:13:21;95276.00;;;13.06;61.84
8253;BME280;61313;48.396;10.008;2023-03-24T05:15:46;95281.47;;;13.03;62.39
8253;BME280;61313;48.396;10.008;2023-03-24T05:18:12;95292.75;;;13.05;62.55
8253;BME280;61313;48.396;10.008;2023-03-24T05:20:37;95296.66;;;13.00;62.52
8253;BME280;61313;48.396;10.008;2023-03-24T05:23:02;95307.06;;;13.14;62.66
8253;BME280;61313;48.396;10.008;2023-03-24T05:25:28;95302.72;;;13.13;61.99
8253;BME280;61313;48.396;10.008;2023-03-24T05:27:54;95308.84;;;13.13;62.55
8253;BME280;61313;48.396;10.008;2023-03-24T05:30:19;95306.50;;;13.22;61.95
8253;BME280;61313;48.396;10.008;2023-03-24T05:32:45;95312.59;;;13.22;61.96
8253;BME280;61313;48.396;10.008;2023-03-24T05:35:10;95301.66;;;13.28;61.45
8253;BME280;61313;48.396;10.008;2023-03-24T05:37:36;95300.84;;;13.28;61.71
8253;BME280;61313;48.396;10.008;2023-03-24T05:40:01;95296.16;;;13.31;61.61
8253;BME280;61313;48.396;10.008;2023-03-24T05:42:27;95307.66;;;13.18;62.13
8253;BME280;61313;48.396;10.008;2023-03-24T05:44:52;95307.97;;;13.26;62.00
8253;BME280;61313;48.396;10.008;2023-03-24T05:47:18;95322.50;;;13.31;60.88
8253;BME280;61313;48.396;10.008;2023-03-24T05:49:47;95317.25;;;13.31;61.58
8253;BME280;61313;48.396;10.008;2023-03-24T05:52:13;95334.63;;;13.34;61.49
8253;BME280;61313;48.396;10.008;2023-03-24T05:54:40;95327.47;;;13.36;61.02
8253;BME280;61313;48.396;10.008;2023-03-24T05:57:06;95336.66;;;13.30;60.65
8253;BME280;61313;48.396;10.008;2023-03-24T05:59:34;95344.03;;;13.25;61.61
8253;BME280;61313;48.396;10.008;2023-03-24T06:02:00;95338.56;;;13.28;61.16
8253;BME280;61313;48.396;10.008;2023-03-24T06:04:25;95339.59;;;13.26;60.76
8253;BME280;61313;48.396;10.008;2023-03-24T06:06:57;95326.94;;;13.79;60.46
8253;BME280;61313;48.396;10.008;2023-03-24T06:09:28;95323.94;;;13.96;59.81
8253;BME280;61313;48.396;10.008;2023-03-24T06:11:57;95332.53;;;13.63;60.34
8253;BME280;61313;48.396;10.008;2023-03-24T06:14:22;95342.28;;;13.50;60.74
8253;BME280;61313;48.396;10.008;2023-03-24T06:16:48;95351.56;;;13.43;61.68
8253;BME280;61313;48.396;10.008;2023-03-24T06:19:15;95351.41;;;13.33;62.34
8253;BME280;61313;48.396;10.008;2023-03-24T06:21:40;95353.91;;;13.34;61.97
8253;BME280;61313;48.396;10.008;2023-03-24T06:24:06;95356.03;;;13.29;62.14
8253;BME280;61313;48.396;10.008;2023-03-24T06:26:32;95353.59;;;13.26;62.47
8253;BME280;61313;48.396;10.008;2023-03-24T06:28:58;95358.13;;;13.24;63.28
8253;BME280;61313;48.396;10.008;2023-03-24T06:31:24;95357.38;;;13.22;63.34
8253;BME280;61313;48.396;10.008;2023-03-24T06:33:50;95361.72;;;13.23;63.21
8253;BME280;61313;48.396;10.008;2023-03-24T06:36:16;95356.47;;;13.23;62.91
8253;BME280;61313;48.396;10.008;2023-03-24T06:38:43;95367.31;;;13.31;62.81
8253;BME280;61313;48.396;10.008;2023-03-24T06:41:10;95355.59;;;13.36;62.89
8253;BME280;61313;48.396;10.008;2023-03-24T06:43:36;95362.78;;;13.33;62.57
8253;BME280;61313;48.396;10.008;2023-03-24T06:46:02;95365.91;;;13.39;63.31
8253;BME280;61313;48.396;10.008;2023-03-24T06:48:27;95368.69;;;13.37;62.42
8253;BME280;61313;48.396;10.008;2023-03-24T06:50:54;95373.81;;;13.39;63.02
8253;BME280;61313;48.396;10.008;2023-03-24T06:53:20;95369.09;;;13.31;63.58
8253;BME280;61313;48.396;10.008;2023-03-24T06:55:49;95375.28;;;13.43;63.43
8253;BME280;61313;48.396;10.008;2023-03-24T06:58:16;95374.56;;;13.41;63.81
8253;BME280;61313;48.396;10.008;2023-03-24T07:00:42;95367.28;;;13.44;63.85
8253;BME280;61313;48.396;10.008;2023-03-24T07:03:08;95375.16;;;13.57;64.02
8253;BME280;61313;48.396;10.008;2023-03-24T07:05:38;95373.56;;;13.54;63.60
8253;BME280;61313;48.396;10.008;2023-03-24T07:08:04;95376.44;;;13.51;63.43
8253;BME280;61313;48.396;10.008;2023-03-24T07:10:30;95369.88;;;13.57;63.48
8253;BME280;61313;48.396;10.008;2023-03-24T07:12:55;95384.72;;;13.58;63.22
8253;BME280;61313;48.396;10.008;2023-03-24T07:15:22;95376.16;;;13.67;62.91
8253;BME280;61313;48.396;10.008;2023-03-24T07:17:48;95380.41;;;13.57;63.45
8253;BME280;61313;48.396;10.008;2023-03-24T07:20:13;95385.25;;;13.63;63.12
8253;BME280;61313;48.396;10.008;2023-03-24T07:22:40;95381.66;;;13.64;63.85
8253;BME280;61313;48.396;10.008;2023-03-24T07:25:06;95379.31;;;13.72;63.04
8253;BME280;61313;48.396;10.008;2023-03-24T07:27:32;95383.56;;;13.62;64.34
8253;BME280;61313;48.396;10.008;2023-03-24T07:29:59;95397.97;;;13.69;64.09
8253;BME280;61313;48.396;10.008;2023-03-24T07:32:25;95394.75;;;13.66;64.39
8253;BME280;61313;48.396;10.008;2023-03-24T07:34:53;95393.78;;;13.67;64.76
8253;BME280;61313;48.396;10.008;2023-03-24T07:37:18;95401.25;;;13.73;64.05
8253;BME280;61313;48.396;10.008;2023-03-24T07:39:44;95404.38;;;13.78;64.62
8253;BME280;61313;48.396;10.008;2023-03-24T07:42:09;95407.53;;;13.83;64.15
8253;BME280;61313;48.396;10.008;2023-03-24T07:44:35;95396.66;;;13.88;63.38
8253;BME280;61313;48.396;10.008;2023-03-24T07:47:00;95409.72;;;13.89;63.88
8253;BME280;61313;48.396;10.008;2023-03-24T07:49:25;95419.53;;;13.87;64.51
8253;BME280;61313;48.396;10.008;2023-03-24T07:51:51;95414.28;;;13.87;64.94
8253;BME280;61313;48.396;10.008;2023-03-24T07:54:17;95422.69;;;13.92;64.12
8253;BME280;61313;48.396;10.008;2023-03-24T07:56:42;95435.25;;;13.89;64.30
8253;BME280;61313;48.396;10.008;2023-03-24T07:59:08;95429.97;;;13.89;64.98
8253;BME280;61313;48.396;10.008;2023-03-24T08:01:36;95438.34;;;13.83;65.26
8253;BME280;61313;48.396;10.008;2023-03-24T08:04:03;95428.78;;;13.93;65.17
8253;BME280;61313;48.396;10.008;2023-03-24T08:06:30;95440.25;;;14.05;64.84
8253;BME280;61313;48.396;10.008;2023-03-24T08:08:56;95444.78;;;14.03;65.02
8253;BME280;61313;48.396;10.008;2023-03-24T08:11:21;95450.31;;;14.00;65.61
8253;BME280;61313;48.396;10.008;2023-03-24T08:13:47;95448.41;;;14.02;65.81
8253;BME280;61313;48.396;10.008;2023-03-24T08:16:12;95444.47;;;14.07;65.83
8253;BME280;61313;48.396;10.008;2023-03-24T08:18:38;95450.41;;;13.98;65.85
8253;BME280;61313;48.396;10.008;2023-03-24T08:21:03;95451.38;;;13.97;66.40
8253;BME280;61313;48.396;10.008;2023-03-24T08:23:29;95455.47;;;14.01;67.19
8253;BME280;61313;48.396;10.008;2023-03-24T08:25:55;95454.28;;;14.05;66.34
8253;BME280;61313;48.396;10.008;2023-03-24T08:28:20;95455.16;;;14.06;67.00
8253;BME280;61313;48.396;10.008;2023-03-24T08:30:46;95464.00;;;14.05;67.80
8253;BME280;61313;48.396;10.008;2023-03-24T08:33:13;95462.53;;;14.01;67.41
8253;BME280;61313;48.396;10.008;2023-03-24T08:35:39;95466.88;;;14.02;67.03
8253;BME280;61313;48.396;10.008;2023-03-24T08:38:06;95466.13;;;14.00;67.02
8253;BME280;61313;48.396;10.008;2023-03-24T08:40:33;95475.63;;;14.02;67.01
8253;BME280;61313;48.396;10.008;2023-03-24T08:43:00;95467.69;;;14.02;67.43
8253;BME280;61313;48.396;10.008;2023-03-24T08:45:29;95466.22;;;13.98;68.31
8253;BME280;61313;48.396;10.008;2023-03-24T08:47:57;95464.72;;;14.07;67.18
8253;BME280;61313;48.396;10.008;2023-03-24T08:50:25;95458.88;;;14.14;66.99
8253;BME280;61313;48.396;10.008;2023-03-24T08:52:53;95457.97;;;14.03;67.66
8253;BME280;61313;48.396;10.008;2023-03-24T08:55:19;95463.06;;;14.06;68.48
8253;BME280;61313;48.396;10.008;2023-03-24T08:57:45;95468.19;;;14.07;68.92
8253;BME280;61313;48.396;10.008;2023-03-24T09:00:12;95462.81;;;14.09;68.19
8253;BME280;61313;48.396;10.008;2023-03-24T09:02:43;95461.75;;;14.11;68.00
8253;BME280;61313;48.396;10.008;2023-03-24T09:05:09;95477.34;;;14.14;68.37
8253;BME280;61313;48.396;10.008;2023-03-24T09:07:35;95476.19;;;14.18;68.65
8253;BME280;61313;48.396;10.008;2023-03-24T09:10:01;95467.94;;;14.23;68.12
8253;BME280;61313;48.396;10.008;2023-03-24T09:12:27;95460.63;;;14.27;68.33
8253;BME280;61313;48.396;10.008;2023-03-24T09:14:52;95470.22;;;14.28;67.93
8253;BME280;61313;48.396;10.008;2023-03-24T09:17:17;95479.81;;;14.29;68.46
8253;BME280;61313;48.396;10.008;2023-03-24T09:19:43;95473.22;;;14.23;68.54
8253;BME280;61313;48.396;10.008;2023-03-24T09:22:10;95475.59;;;14.15;69.13
8253;BME280;61313;48.396;10.008;2023-03-24T09:24:36;95476.28;;;14.17;69.28
8253;BME280;61313;48.396;10.008;2023-03-24T09:27:02;95466.97;;;14.24;69.07
8253;BME280;61313;48.396;10.008;2023-03-24T09:29:28;95457.72;;;14.18;67.97
8253;BME280;61313;48.396;10.008;2023-03-24T09:31:54;95454.63;;;14.25;67.56
8253;BME280;61313;48.396;10.008;2023-03-24T09:34:21;95440.56;;;14.13;67.88
8253;BME280;61313;48.396;10.008;2023-03-24T09:36:47;95460.84;;;14.24;67.46
8253;BME280;61313;48.396;10.008;2023-03-24T09:39:12;95448.78;;;14.32;66.78
8253;BME280;61313;48.396;10.008;2023-03-24T09:41:38;95438.81;;;14.36;nan
8253;BME280;61313;48.396;10.008;2023-03-24T09:46:38;95390.09;;;14.17;68.28
8253;BME280;61313;48.396;10.008;2023-03-24T09:49:05;95366.38;;;14.05;67.54
8253;BME280;61313;48.396;10.008;2023-03-24T09:51:42;95358.56;;;13.92;67.60
8253;BME280;61313;48.396;10.008;2023-03-24T09:54:18;95348.59;;;13.95;68.09
8253;BME280;61313;48.396;10.008;2023-03-24T09:56:46;95401.34;;;13.95;68.25
8253;BME280;61313;48.396;10.008;2023-03-24T09:59:39;95409.16;;;13.97;68.51
8253;BME280;61313;48.396;10.008;2023-03-24T10:02:17;95416.75;;;14.02;68.62
8253;BME280;61313;48.396;10.008;2023-03-24T10:04:43;95437.50;;;14.06;68.10
8253;BME280;61313;48.396;10.008;2023-03-24T10:07:18;95447.84;;;14.09;68.72
8253;BME280;61313;48.396;10.008;2023-03-24T10:09:49;95452.66;;;14.15;68.40
8253;BME280;61313;48.396;10.008;2023-03-24T10:12:29;95456.53;;;14.23;68.10
8253;BME280;61313;48.396;10.008;2023-03-24T10:22:59;95443.91;;;14.50;66.88
8253;BME280;61313;48.396;10.008;2023-03-24T10:31:36;95437.19;;;14.70;66.35
8253;BME280;61313;48.396;10.008;2023-03-24T10:34:03;95437.44;;;14.78;66.17
8253;BME280;61313;48.396;10.008;2023-03-24T10:36:29;95437.47;;;14.90;65.71
8253;BME280;61313;48.396;10.008;2023-03-24T10:38:55;95444.09;;;14.95;64.87
8253;BME280;61313;48.396;10.008;2023-03-24T10:41:25;95431.75;;;15.07;64.23
8253;BME280;61313;48.396;10.008;2023-03-24T10:43:54;95443.72;;;15.11;64.38
8253;BME280;61313;48.396;10.008;2023-03-24T10:46:23;95438.56;;;15.21;64.05
8253;BME280;61313;48.396;10.008;2023-03-24T10:49:05;95446.03;;;15.27;62.36
8253;BME280;61313;48.396;10.008;2023-03-24T10:51:33;95449.41;;;15.29;62.18
8253;BME280;61313;48.396;10.008;2023-03-24T10:56:42;95436.19;;;15.29;61.45
8253;BME280;61313;48.396;10.008;2023-03-24T10:59:21;95441.59;;;15.39;61.80
8253;BME280;61313;48.396;10.008;2023-03-24T11:01:55;95451.69;;;15.45;61.17
8253;BME280;61313;48.396;10.008;2023-03-24T11:04:20;95441.97;;;15.45;60.68
8253;BME280;61313;48.396;10.008;2023-03-24T11:10:05;95436.56;;;15.36;60.66
8253;BME280;61313;48.396;10.008;2023-03-24T11:12:34;95441.94;;;15.23;61.68
8253;BME280;61313;48.396;10.008;2023-03-24T11:15:24;95445.31;;;15.25;60.95
8253;BME280;61313;48.396;10.008;2023-03-24T11:20:54;95442.31;;;15.18;60.48
8253;BME280;61313;48.396;10.008;2023-03-24T11:23:41;95438.81;;;15.18;60.14
8253;BME280;61313;48.396;10.008;2023-03-24T11:26:18;95436.28;;;15.16;59.79
8253;BME280;61313;48.396;10.008;2023-03-24T11:31:28;95415.03;;;15.07;60.10
8253;BME280;61313;48.396;10.008;2023-03-24T11:34:14;95386.44;;;15.00;60.03
8253;BME280;61313;48.396;10.008;2023-03-24T11:39:25;95406.88;;;15.10;59.68
8253;BME280;61313;48.396;10.008;2023-03-24T11:58:18;95425.84;;;15.49;57.46
8253;BME280;61313;48.396;10.008;2023-03-24T12:01:29;95421.88;;;15.32;57.41
8253;BME280;61313;48.396;10.008;2023-03-24T12:04:05;95432.22;;;15.23;57.88
8253;BME280;61313;48.396;10.008;2023-03-24T12:06:45;95440.00;;;15.14;57.94
8253;BME280;61313;48.396;10.008;2023-03-24T12:17:57;95436.16;;;14.95;58.62
8253;BME280;61313;48.396;10.008;2023-03-24T12:20:30;95437.13;;;15.06;58.59
8253;BME280;61313;48.396;10.008;2023-03-24T12:30:30;95410.72;;;15.06;58.61
8253;BME280;61313;48.396;10.008;2023-03-24T12:43:49;95412.50;;;15.28;58.10
8253;BME280;61313;48.396;10.008;2023-03-24T12:54:31;95404.00;;;15.13;58.45
8253;BME280;61313;48.396;10.008;2023-03-24T12:57:10;95408.31;;;15.02;58.55
8253;BME280;61313;48.396;10.008;2023-03-24T13:00:11;95420.81;;;15.00;58.52
8253;BME280;61313;48.396;10.008;2023-03-24T13:02:51;95414.44;;;15.03;58.71
8253;BME280;61313;48.396;10.008;2023-03-24T13:05:20;95424.88;;;15.04;58.70
8253;BME280;61313;48.396;10.008;2023-03-24T13:07:49;95416.25;;;15.02;58.21
8253;BME280;61313;48.396;10.008;2023-03-24T13:10:23;95431.72;;;14.96;58.67
8253;BME280;61313;48.396;10.008;2023-03-24T13:13:11;95421.84;;;14.87;57.96
8253;BME280;61313;48.396;10.008;2023-03-24T13:15:54;95421.22;;;14.83;58.58
8253;BME280;61313;48.396;10.008;2023-03-24T13:18:40;95429.16;;;14.83;58.80
8253;BME280;61313;48.396;10.008;2023-03-24T13:21:10;95426.41;;;14.85;58.50
8253;BME280;61313;48.396;10.008;2023-03-24T13:23:51;95417.66;;;14.84;58.10
8253;BME280;61313;48.396;10.008;2023-03-24T13:31:46;95390.88;;;14.89;58.29
8253;BME280;61313;48.396;10.008;2023-03-24T13:34:32;95374.69;;;14.93;58.19
8253;BME280;61313;48.396;10.008;2023-03-24T13:37:05;95368.53;;;15.04;57.98
8253;BME280;61313;48.396;10.008;2023-03-24T13:39:34;95362.69;;;15.00;58.21
8253;BME280;61313;48.396;10.008;2023-03-24T13:42:02;95364.25;;;15.14;57.52
8253;BME280;61313;48.396;10.008;2023-03-24T13:44:41;95363.38;;;15.14;57.79
8253;BME280;61313;48.396;10.008;2023-03-24T13:47:15;95373.47;;;15.20;57.70
8253;BME280;61313;48.396;10.008;2023-03-24T13:49:54;95369.97;;;15.42;60.07
8253;BME280;61313;48.396;10.008;2023-03-24T13:52:39;95376.22;;;15.41;57.08
8253;BME280;61313;48.396;10.008;2023-03-24T13:57:41;95375.63;;;15.37;57.46
8253;BME280;61313;48.396;10.008;2023-03-24T14:05:59;95385.13;;;15.17;58.13
8253;BME280;61313;48.396;10.008;2023-03-24T14:19:23;95418.72;;;14.93;58.69
8253;BME280;61313;48.396;10.008;2023-03-24T14:24:56;95418.72;;;14.81;58.37
8253;BME280;61313;48.396;10.008;2023-03-24T14:30:00;95415.28;;;14.57;59.30
8253;BME280;61313;48.396;10.008;2023-03-24T14:32:26;95419.28;;;14.63;59.54
8253;BME280;61313;48.396;10.008;2023-03-24T14:34:55;95424.09;;;14.57;59.63
8253;BME280;61313;48.396;10.008;2023-03-24T14:37:22;95421.13;;;14.49;60.47
8253;BME280;61313;48.396;10.008;2023-03-24T14:39:49;95420.69;;;14.31;60.41
8253;BME280;61313;48.396;10.008;2023-03-24T14:44:54;95419.75;;;14.32;61.35
8253;BME280;61313;48.396;10.008;2023-03-24T14:47:41;95423.91;;;14.24;61.73
8253;BME280;61313;48.396;10.008;2023-03-24T14:50:16;95425.31;;;14.16;61.49
8253;BME280;61313;48.396;10.008;2023-03-24T14:52:48;95412.84;;;14.18;61.54
8253;BME280;61313;48.396;10.008;2023-03-24T14:55:16;95423.66;;;14.15;62.06
8253;BME280;61313;48.396;10.008;2023-03-24T14:57:51;95421.94;;;14.14;61.99
8253;BME280;61313;48.396;10.008;2023-03-24T15:03:09;95429.28;;;13.98;62.93
8253;BME280;61313;48.396;10.008;2023-03-24T15:05:35;95433.75;;;13.97;62.65
8253;BME280;61313;48.396;10.008;2023-03-24T15:18:34;95441.97;;;13.69;64.81
8253;BME280;61313;48.396;10.008;2023-03-24T15:21:00;95436.34;;;13.73;64.90
8253;BME280;61313;48.396;10.008;2023-03-24T15:23:26;95436.69;;;13.69;64.68
8253;BME280;61313;48.396;10.008;2023-03-24T15:25:55;95444.69;;;13.67;64.80
8253;BME280;61313;48.396;10.008;2023-03-24T15:28:27;95445.88;;;13.63;65.37
8253;BME280;61313;48.396;10.008;2023-03-24T15:30:55;95443.34;;;13.62;65.43
8253;BME280;61313;48.396;10.008;2023-03-24T15:33:22;95417.97;;;13.61;65.94
8253;BME280;61313;48.396;10.008;2023-03-24T15:35:55;95417.00;;;13.62;65.43
8253;BME280;61313;48.396;10.008;2023-03-24T15:38:28;95425.97;;;13.59;65.70
8253;BME280;61313;48.396;10.008;2023-03-24T15:41:02;95417.72;;;13.64;65.89
8253;BME280;61313;48.396;10.008;2023-03-24T15:43:29;95383.28;;;13.54;65.28
8253;BME280;61313;48.396;10.008;2023-03-24T15:45:57;95352.59;;;13.53;65.38
8253;BME280;61313;48.396;10.008;2023-03-24T15:48:31;95367.56;;;13.52;65.44
8253;BME280;61313;48.396;10.008;2023-03-24T15:51:02;95391.59;;;13.61;64.76
8253;BME280;61313;48.396;10.008;2023-03-24T15:54:14;95393.50;;;13.59;65.33
8253;BME280;61313;48.396;10.008;2023-03-24T15:56:16;95390.78;;;13.47;65.31
8253;BME280;61313;48.396;10.008;2023-03-24T15:59:07;95408.41;;;13.47;65.94
8253;BME280;61313;48.396;10.008;2023-03-24T16:01:37;95416.06;;;13.50;65.08
8253;BME280;61313;48.396;10.008;2023-03-24T16:04:10;95421.94;;;13.53;64.76
8253;BME280;61313;48.396;10.008;2023-03-24T16:06:39;95400.03;;;13.53;65.26
8253;BME280;61313;48.396;10.008;2023-03-24T16:09:12;95403.41;;;13.55;64.44
8253;BME280;61313;48.396;10.008;2023-03-24T16:11:38;95403.13;;;13.47;64.38
8253;BME280;61313;48.396;10.008;2023-03-24T16:14:30;95395.31;;;13.45;64.42
8253;BME280;61313;48.396;10.008;2023-03-24T16:17:00;95373.66;;;13.53;63.57